createdAt,value
2018-12-21T00:00:36.544Z,7.00
2018-12-21T00:03:04.924Z,7.00
2018-12-21T00:05:33.380Z,6.90
2018-12-21T00:08:01.717Z,7.00
2018-12-21T00:10:30.109Z,6.90
2018-12-21T00:12:58.461Z,6.90
2018-12-21T00:15:27.131Z,6.90
2018-12-21T00:17:55.466Z,6.90
2018-12-21T00:20:23.879Z,7.00
2018-12-21T00:22:52.437Z,6.90
2018-12-21T00:25:20.801Z,7.00
2018-12-21T00:27:49.135Z,6.90
2018-12-21T00:30:22.760Z,6.90
2018-12-21T00:32:56.941Z,6.90
2018-12-21T00:35:30.693Z,6.90
2018-12-21T00:38:05.677Z,6.90
2018-12-21T00:40:40.131Z,6.90
2018-12-21T00:43:20.836Z,6.90
2018-12-21T00:45:54.289Z,7.00
2018-12-21T00:48:22.874Z,7.00
2018-12-21T00:50:51.239Z,7.00
2018-12-21T00:53:19.576Z,7.00
2018-12-21T00:55:47.944Z,7.00
2018-12-21T00:58:16.265Z,7.00
2018-12-21T01:00:44.625Z,7.00
2018-12-21T01:03:13.012Z,7.10
2018-12-21T01:05:41.395Z,7.10
2018-12-21T01:08:09.732Z,7.10
2018-12-21T01:10:38.163Z,7.10
2018-12-21T01:13:06.568Z,7.10
2018-12-21T01:15:34.895Z,7.20
2018-12-21T01:18:03.219Z,7.20
2018-12-21T01:20:31.723Z,7.20
2018-12-21T01:23:00.076Z,7.30
2018-12-21T01:25:28.391Z,7.30
2018-12-21T01:27:56.738Z,7.20
2018-12-21T01:30:25.072Z,7.20
2018-12-21T01:32:53.543Z,7.20
2018-12-21T01:35:21.920Z,7.30
2018-12-21T01:37:50.605Z,7.20
2018-12-21T01:40:18.898Z,7.20
2018-12-21T01:42:47.328Z,7.20
2018-12-21T01:45:15.650Z,7.20
2018-12-21T01:47:44.317Z,7.20
2018-12-21T01:50:12.640Z,7.20
2018-12-21T01:52:41.094Z,7.20
2018-12-21T01:55:09.439Z,7.30
2018-12-21T01:57:37.791Z,7.30
2018-12-21T02:00:06.767Z,7.30
2018-12-21T02:02:35.245Z,7.30
2018-12-21T02:05:03.583Z,7.30
2018-12-21T02:07:31.954Z,7.30
2018-12-21T02:10:00.313Z,7.30
2018-12-21T02:12:28.825Z,7.30
2018-12-21T02:14:57.180Z,7.30
2018-12-21T02:17:25.744Z,7.30
2018-12-21T02:19:54.108Z,7.30
2018-12-21T02:22:22.440Z,7.40
2018-12-21T02:24:50.800Z,7.30
2018-12-21T02:27:19.137Z,7.40
2018-12-21T02:29:47.558Z,7.40
2018-12-21T02:32:15.876Z,7.50
2018-12-21T02:34:44.351Z,7.50
2018-12-21T02:37:12.688Z,7.50
2018-12-21T02:39:41.069Z,7.50
2018-12-21T02:42:09.404Z,7.50
2018-12-21T02:44:37.909Z,7.50
2018-12-21T02:47:06.253Z,7.40
2018-12-21T02:49:34.608Z,7.40
2018-12-21T02:52:05.743Z,7.50
2018-12-21T02:54:33.334Z,7.40
2018-12-21T02:57:01.737Z,7.40
2018-12-21T02:59:30.064Z,7.40
2018-12-21T03:01:58.412Z,7.40
2018-12-21T03:04:26.753Z,7.40
2018-12-21T03:06:55.094Z,7.50
2018-12-21T03:09:23.432Z,7.50
2018-12-21T03:11:51.784Z,7.50
2018-12-21T03:14:20.104Z,7.50
2018-12-21T03:16:48.646Z,7.50
2018-12-21T03:19:17.017Z,7.50
2018-12-21T03:21:45.366Z,7.50
2018-12-21T03:24:13.697Z,7.50
2018-12-21T03:26:42.053Z,7.50
2018-12-21T03:29:10.387Z,7.60
2018-12-21T03:31:38.813Z,7.50
2018-12-21T03:34:07.144Z,7.50
2018-12-21T03:36:35.495Z,7.60
2018-12-21T03:39:05.765Z,7.60
2018-12-21T03:41:34.112Z,7.50
2018-12-21T03:44:02.428Z,7.50
2018-12-21T03:46:30.787Z,7.50
2018-12-21T03:48:59.258Z,7.50
2018-12-21T03:51:27.652Z,7.40
2018-12-21T03:53:56.069Z,7.40
2018-12-21T03:56:24.416Z,7.50
2018-12-21T03:58:52.744Z,7.40
2018-12-21T04:01:21.094Z,7.40
2018-12-21T04:03:49.425Z,7.40
2018-12-21T04:06:17.792Z,7.40
2018-12-21T04:08:46.157Z,7.50
2018-12-21T04:11:14.656Z,7.50
2018-12-21T04:13:42.978Z,7.50
2018-12-21T04:16:11.491Z,7.50
2018-12-21T04:18:39.821Z,7.50
2018-12-21T04:21:08.193Z,7.50
2018-12-21T04:23:36.610Z,7.50
2018-12-21T04:26:04.949Z,7.50
2018-12-21T04:28:33.395Z,7.50
2018-12-21T04:31:01.791Z,7.50
2018-12-21T04:33:30.128Z,7.60
2018-12-21T04:35:58.501Z,7.60
2018-12-21T04:38:26.879Z,7.70
2018-12-21T04:40:55.216Z,7.60
2018-12-21T04:43:23.584Z,7.60
2018-12-21T04:45:51.927Z,7.60
2018-12-21T04:48:20.368Z,7.70
2018-12-21T04:50:48.806Z,7.60
2018-12-21T04:53:17.116Z,7.60
2018-12-21T04:55:45.468Z,7.60
2018-12-21T04:58:13.792Z,7.60
2018-12-21T05:00:42.148Z,7.60
2018-12-21T05:03:10.536Z,7.60
2018-12-21T05:05:39.641Z,7.60
2018-12-21T05:08:08.072Z,7.60
2018-12-21T05:10:36.548Z,7.60
2018-12-21T05:13:04.924Z,7.60
2018-12-21T05:15:33.462Z,7.60
2018-12-21T05:18:01.811Z,7.60
2018-12-21T05:20:30.203Z,7.70
2018-12-21T05:22:58.647Z,7.70
2018-12-21T05:25:27.083Z,7.70
2018-12-21T05:27:55.516Z,7.70
2018-12-21T05:30:23.828Z,7.70
2018-12-21T05:32:52.204Z,7.70
2018-12-21T05:35:20.564Z,7.80
2018-12-21T05:37:49.175Z,7.80
2018-12-21T05:40:17.499Z,7.80
2018-12-21T05:42:45.872Z,7.80
2018-12-21T05:45:14.192Z,7.80
2018-12-21T05:47:42.656Z,7.80
2018-12-21T05:50:11.000Z,7.90
2018-12-21T05:52:39.348Z,7.90
2018-12-21T05:55:07.691Z,8.00
2018-12-21T05:57:36.137Z,8.00
2018-12-21T06:00:04.931Z,8.00
2018-12-21T06:02:33.237Z,8.00
2018-12-21T06:05:01.620Z,8.00
2018-12-21T06:07:30.027Z,8.10
2018-12-21T06:09:58.372Z,8.10
2018-12-21T06:12:26.764Z,8.20
2018-12-21T06:14:55.070Z,8.20
2018-12-21T06:17:23.416Z,8.20
2018-12-21T06:19:52.156Z,8.20
2018-12-21T06:22:20.504Z,8.20
2018-12-21T06:24:48.883Z,8.20
2018-12-21T06:27:17.244Z,8.20
2018-12-21T06:29:45.567Z,8.20
2018-12-21T06:32:14.111Z,8.20
2018-12-21T06:34:42.480Z,8.20
2018-12-21T06:37:10.800Z,8.20
2018-12-21T06:39:39.243Z,8.30
2018-12-21T06:42:07.640Z,8.20
2018-12-21T06:44:36.103Z,8.10
2018-12-21T06:47:04.437Z,8.10
2018-12-21T06:49:32.890Z,8.10
2018-12-21T06:52:01.271Z,8.10
2018-12-21T06:54:29.843Z,8.00
2018-12-21T06:56:58.208Z,7.90
2018-12-21T06:59:26.527Z,7.80
2018-12-21T07:01:54.860Z,7.80
2018-12-21T07:04:23.252Z,7.80
2018-12-21T07:06:51.628Z,7.80
2018-12-21T07:09:19.952Z,7.80
2018-12-21T07:11:48.329Z,7.70
2018-12-21T07:14:16.676Z,7.60
2018-12-21T07:16:45.291Z,7.60
2018-12-21T07:19:13.631Z,7.60
2018-12-21T07:21:42.004Z,7.50
2018-12-21T07:24:10.559Z,7.40
2018-12-21T07:26:38.980Z,7.50
2018-12-21T07:29:07.463Z,7.40
2018-12-21T07:31:35.872Z,7.40
2018-12-21T07:34:04.327Z,7.40
2018-12-21T07:36:32.701Z,7.40
2018-12-21T07:39:01.171Z,7.40
2018-12-21T07:41:29.615Z,7.40
2018-12-21T07:44:01.066Z,7.40
2018-12-21T07:46:29.484Z,7.40
2018-12-21T07:48:57.831Z,7.40
2018-12-21T07:51:26.195Z,7.50
2018-12-21T07:53:54.600Z,7.40
2018-12-21T07:56:23.263Z,7.40
2018-12-21T07:58:57.186Z,7.40
2018-12-21T08:01:21.972Z,7.40
2018-12-21T08:03:50.377Z,7.40
2018-12-21T08:06:18.720Z,7.40
2018-12-21T08:08:47.211Z,7.50
2018-12-21T08:11:15.678Z,7.50
2018-12-21T08:13:44.032Z,7.50
2018-12-21T08:16:12.512Z,7.50
2018-12-21T08:18:41.080Z,7.50
2018-12-21T08:21:09.448Z,7.50
2018-12-21T08:23:44.234Z,7.50
2018-12-21T08:26:08.163Z,7.50
2018-12-21T08:28:36.611Z,7.40
2018-12-21T08:31:05.092Z,7.50
2018-12-21T08:33:33.540Z,7.50
2018-12-21T08:36:01.895Z,7.50
2018-12-21T08:38:30.441Z,7.40
2018-12-21T08:40:59.503Z,7.40
2018-12-21T08:43:27.879Z,7.50
2018-12-21T08:45:56.360Z,7.40
2018-12-21T08:48:24.737Z,7.40
2018-12-21T08:50:53.083Z,7.40
2018-12-21T08:53:21.522Z,7.40
2018-12-21T08:55:50.060Z,7.50
2018-12-21T08:58:18.427Z,7.40
2018-12-21T09:00:46.861Z,7.40
2018-12-21T09:03:15.204Z,7.50
2018-12-21T09:05:43.531Z,7.50
2018-12-21T09:08:11.895Z,7.40
2018-12-21T09:10:40.234Z,7.40
2018-12-21T09:13:08.652Z,7.50
2018-12-21T09:15:36.999Z,7.50
2018-12-21T09:18:05.361Z,7.50
2018-12-21T09:20:33.702Z,7.50
2018-12-21T09:23:02.076Z,7.50
2018-12-21T09:25:30.614Z,7.50
2018-12-21T09:27:58.981Z,7.60
2018-12-21T09:30:27.494Z,7.60
2018-12-21T09:32:55.940Z,7.70
2018-12-21T09:35:24.305Z,7.70
2018-12-21T09:37:52.699Z,7.70
2018-12-21T09:40:21.067Z,7.80
2018-12-21T09:42:49.425Z,7.80
2018-12-21T09:45:17.766Z,7.80
2018-12-21T09:47:46.336Z,7.90
2018-12-21T09:50:14.697Z,7.90
2018-12-21T09:52:43.371Z,7.90
2018-12-21T09:55:11.806Z,8.00
2018-12-21T09:57:40.269Z,8.00
2018-12-21T10:00:11.063Z,8.00
2018-12-21T10:02:39.935Z,8.00
2018-12-21T10:05:11.064Z,8.10
2018-12-21T10:07:39.423Z,8.10
2018-12-21T10:10:07.862Z,8.10
2018-12-21T10:12:36.417Z,8.10
2018-12-21T10:15:05.196Z,8.20
2018-12-21T10:17:33.561Z,8.20
2018-12-21T10:20:02.588Z,8.30
2018-12-21T10:22:30.984Z,8.30
2018-12-21T10:24:59.331Z,8.40
2018-12-21T10:27:27.875Z,8.40
2018-12-21T10:29:56.228Z,8.40
2018-12-21T10:32:24.639Z,8.50
2018-12-21T10:34:52.984Z,8.50
2018-12-21T10:37:21.323Z,8.60
2018-12-21T10:39:49.687Z,8.60
2018-12-21T10:42:18.091Z,8.70
2018-12-21T10:44:46.435Z,8.70
2018-12-21T10:47:14.837Z,8.80
2018-12-21T10:49:43.204Z,8.90
2018-12-21T10:52:11.668Z,8.90
2018-12-21T10:54:40.054Z,8.90
2018-12-21T10:57:08.465Z,8.90
2018-12-21T10:59:43.332Z,8.90
2018-12-21T11:02:07.173Z,8.90
2018-12-21T11:04:35.617Z,8.90
2018-12-21T11:07:03.965Z,8.80
2018-12-21T11:09:32.482Z,8.80
2018-12-21T11:12:00.903Z,8.90
2018-12-21T11:14:29.372Z,8.90
2018-12-21T11:16:57.855Z,9.00
2018-12-21T11:19:26.399Z,9.10
2018-12-21T11:21:54.763Z,9.10
2018-12-21T11:24:23.561Z,9.20
2018-12-21T11:26:52.044Z,9.20
2018-12-21T11:29:20.449Z,9.30
2018-12-21T11:31:48.796Z,9.30
2018-12-21T11:34:17.231Z,9.30
2018-12-21T11:36:45.592Z,9.30
2018-12-21T11:39:13.944Z,9.30
2018-12-21T11:41:42.376Z,9.30
2018-12-21T11:44:10.793Z,9.30
2018-12-21T11:46:39.211Z,9.30
2018-12-21T11:49:07.564Z,9.30
2018-12-21T11:51:41.437Z,9.20
2018-12-21T11:54:09.794Z,9.20
2018-12-21T11:56:38.227Z,9.20
2018-12-21T11:59:06.629Z,9.20
2018-12-21T12:01:34.951Z,9.20
2018-12-21T12:04:03.305Z,9.30
2018-12-21T12:06:31.912Z,9.30
2018-12-21T12:09:06.117Z,9.30
2018-12-21T12:11:30.855Z,9.40
2018-12-21T12:13:59.215Z,9.40
2018-12-21T12:16:27.580Z,9.40
2018-12-21T12:18:55.952Z,9.50
2018-12-21T12:21:24.349Z,9.50
2018-12-21T12:23:52.795Z,9.50
2018-12-21T12:26:21.164Z,9.60
2018-12-21T12:28:49.561Z,9.60
2018-12-21T12:31:17.887Z,9.60
2018-12-21T12:33:46.244Z,9.70
2018-12-21T12:36:14.628Z,9.70
2018-12-21T12:38:43.036Z,9.70
2018-12-21T12:41:11.422Z,9.80
2018-12-21T12:43:39.771Z,9.80
2018-12-21T12:46:08.185Z,9.80
2018-12-21T12:48:36.669Z,9.90
2018-12-21T12:51:05.024Z,9.90
2018-12-21T12:53:34.784Z,10.00
2018-12-21T12:56:05.232Z,10.10
2018-12-21T12:58:33.653Z,10.10
2018-12-21T13:01:02.285Z,10.10
2018-12-21T13:03:30.628Z,10.10
2018-12-21T13:05:59.516Z,10.10
2018-12-21T13:08:27.976Z,10.10
2018-12-21T13:10:56.332Z,10.20
2018-12-21T13:13:24.715Z,10.20
2018-12-21T13:15:53.062Z,10.20
2018-12-21T13:18:21.422Z,10.20
2018-12-21T13:20:49.952Z,10.20
2018-12-21T13:23:18.324Z,10.30
2018-12-21T13:25:46.671Z,10.30
2018-12-21T13:28:15.032Z,10.30
2018-12-21T13:30:43.459Z,10.30
2018-12-21T13:33:11.840Z,10.30
2018-12-21T13:35:40.248Z,10.30
2018-12-21T13:38:08.679Z,10.40
2018-12-21T13:40:37.684Z,10.50
2018-12-21T13:43:06.087Z,10.50
2018-12-21T13:45:34.523Z,10.40
2018-12-21T13:48:02.884Z,10.40
2018-12-21T13:50:31.320Z,10.40
2018-12-21T13:53:00.623Z,10.50
2018-12-21T13:55:29.181Z,10.50
2018-12-21T13:57:57.524Z,10.40
2018-12-21T14:00:26.187Z,10.40
2018-12-21T14:02:54.547Z,10.40
2018-12-21T14:05:22.925Z,10.50
2018-12-21T14:07:51.468Z,10.50
2018-12-21T14:10:19.872Z,10.50
2018-12-21T14:12:48.230Z,10.50
2018-12-21T14:15:16.687Z,10.50
2018-12-21T14:17:45.113Z,10.60
2018-12-21T14:20:13.452Z,10.60
2018-12-21T14:22:41.831Z,10.50
2018-12-21T14:25:10.265Z,10.50
2018-12-21T14:27:38.668Z,10.50
2018-12-21T14:30:08.552Z,10.50
2018-12-21T14:32:36.924Z,10.50
2018-12-21T14:35:06.557Z,10.50
2018-12-21T14:37:34.982Z,10.40
2018-12-21T14:40:03.372Z,10.50
2018-12-21T14:42:31.745Z,10.50
2018-12-21T14:45:00.165Z,10.50
2018-12-21T14:47:28.607Z,10.50
2018-12-21T14:49:57.037Z,10.50
2018-12-21T14:52:25.460Z,10.60
2018-12-21T14:54:53.820Z,10.60
2018-12-21T14:57:22.212Z,10.70
2018-12-21T14:59:50.630Z,10.70
2018-12-21T15:02:18.961Z,10.70
2018-12-21T15:04:47.272Z,10.70
2018-12-21T15:07:15.672Z,10.80
2018-12-21T15:09:44.067Z,10.80
2018-12-21T15:12:12.520Z,10.80
2018-12-21T15:14:41.017Z,10.70
2018-12-21T15:17:09.528Z,10.70
2018-12-21T15:19:38.009Z,10.70
2018-12-21T15:22:06.351Z,10.70
2018-12-21T15:24:34.863Z,10.70
2018-12-21T15:27:03.215Z,10.70
2018-12-21T15:29:31.589Z,10.80
2018-12-21T15:32:00.545Z,10.80
2018-12-21T15:34:29.596Z,10.80
2018-12-21T15:36:58.044Z,10.80
2018-12-21T15:39:26.455Z,10.90
2018-12-21T15:41:54.836Z,10.90
2018-12-21T15:44:23.292Z,10.90
2018-12-21T15:46:51.813Z,10.80
2018-12-21T15:49:20.319Z,10.90
2018-12-21T15:51:48.822Z,10.90
2018-12-21T15:54:17.160Z,11.00
2018-12-21T15:56:45.534Z,11.00
2018-12-21T15:59:13.937Z,11.00
2018-12-21T16:01:42.406Z,11.10
2018-12-21T16:04:10.810Z,11.10
2018-12-21T16:06:42.928Z,11.10
2018-12-21T16:09:11.251Z,11.10
2018-12-21T16:11:39.622Z,11.10
2018-12-21T16:14:08.091Z,11.10
2018-12-21T16:16:36.497Z,11.10
2018-12-21T16:19:04.865Z,11.20
2018-12-21T16:21:33.901Z,11.20
2018-12-21T16:24:06.815Z,11.30
2018-12-21T16:26:32.581Z,11.20
2018-12-21T16:29:01.097Z,11.10
2018-12-21T16:31:29.532Z,11.10
2018-12-21T16:33:58.012Z,11.20
2018-12-21T16:36:27.031Z,11.30
2018-12-21T16:38:55.460Z,11.30
2018-12-21T16:41:23.833Z,11.40
2018-12-21T16:43:52.228Z,11.40
2018-12-21T16:46:20.583Z,11.40
2018-12-21T16:48:48.959Z,11.40
2018-12-21T16:51:17.377Z,11.40
2018-12-21T16:53:45.853Z,11.40
2018-12-21T16:56:14.210Z,11.40
2018-12-21T16:58:42.625Z,11.50
2018-12-21T17:01:10.972Z,11.50
2018-12-21T17:03:39.404Z,11.50
2018-12-21T17:06:07.972Z,11.60
2018-12-21T17:08:36.387Z,11.60
2018-12-21T17:11:04.800Z,11.60
2018-12-21T17:13:33.189Z,11.50
2018-12-21T17:16:01.595Z,11.60
2018-12-21T17:18:30.148Z,11.60
2018-12-21T17:20:58.483Z,11.60
2018-12-21T17:23:26.850Z,11.60
2018-12-21T17:25:55.216Z,11.60
2018-12-21T17:28:23.600Z,11.60
2018-12-21T17:30:51.960Z,11.60
2018-12-21T17:33:20.341Z,11.60
2018-12-21T17:35:48.674Z,11.60
2018-12-21T17:38:17.111Z,11.60
2018-12-21T17:40:45.469Z,11.70
2018-12-21T17:43:13.880Z,11.70
2018-12-21T17:45:42.455Z,11.70
2018-12-21T17:48:11.404Z,11.80
2018-12-21T17:50:39.739Z,11.70
2018-12-21T17:53:08.096Z,11.70
2018-12-21T17:55:36.685Z,11.70
2018-12-21T17:58:07.153Z,11.70
2018-12-21T18:00:36.464Z,11.80
2018-12-21T18:03:06.167Z,11.80
2018-12-21T18:05:34.512Z,11.80
2018-12-21T18:08:02.907Z,11.80
2018-12-21T18:10:31.363Z,11.80
2018-12-21T18:12:59.794Z,11.80
2018-12-21T18:15:28.309Z,11.80
2018-12-21T18:17:56.734Z,11.80
2018-12-21T18:20:25.419Z,11.90
2018-12-21T18:22:53.875Z,11.80
2018-12-21T18:25:25.661Z,11.80
2018-12-21T18:27:56.175Z,11.90
2018-12-21T18:30:31.650Z,11.90
2018-12-21T18:33:10.254Z,11.90
2018-12-21T18:35:33.461Z,11.90
2018-12-21T18:38:04.422Z,11.90
2018-12-21T18:40:33.423Z,11.90
2018-12-21T18:43:01.783Z,11.90
2018-12-21T18:45:30.207Z,11.80
2018-12-21T18:47:58.621Z,11.80
2018-12-21T18:50:28.063Z,11.80
2018-12-21T18:52:56.447Z,11.80
2018-12-21T18:55:24.835Z,11.80
2018-12-21T18:57:53.223Z,11.80
2018-12-21T19:00:21.571Z,11.80
2018-12-21T19:02:49.919Z,11.80
2018-12-21T19:05:18.349Z,11.80
2018-12-21T19:07:46.874Z,11.80
2018-12-21T19:10:15.410Z,11.80
2018-12-21T19:12:43.840Z,11.80
2018-12-21T19:15:12.378Z,11.70
2018-12-21T19:17:40.909Z,11.80
2018-12-21T19:20:11.184Z,11.80
2018-12-21T19:22:39.766Z,11.80
2018-12-21T19:25:09.936Z,11.80
2018-12-21T19:27:38.316Z,11.80
2018-12-21T19:30:11.495Z,11.80
2018-12-21T19:32:41.358Z,11.80
2018-12-21T19:35:11.174Z,11.70
2018-12-21T19:37:39.501Z,11.60
2018-12-21T19:40:09.732Z,11.60
2018-12-21T19:42:38.526Z,11.70
2018-12-21T19:45:09.394Z,11.60
2018-12-21T19:47:37.771Z,11.70
2018-12-21T19:50:07.723Z,11.60
2018-12-21T19:52:36.187Z,11.60
2018-12-21T19:55:14.856Z,11.60
2018-12-21T19:57:43.235Z,11.50
2018-12-21T20:00:11.624Z,11.50
2018-12-21T20:02:39.972Z,11.50
2018-12-21T20:05:08.536Z,11.60
2018-12-21T20:07:37.409Z,11.50
2018-12-21T20:10:07.016Z,11.60
2018-12-21T20:12:35.415Z,11.60
2018-12-21T20:15:03.813Z,11.60
2018-12-21T20:17:33.198Z,11.60
2018-12-21T20:20:01.583Z,11.60
2018-12-21T20:22:30.011Z,11.60
2018-12-21T20:24:58.523Z,11.60
2018-12-21T20:27:27.431Z,11.60
2018-12-21T20:29:55.823Z,11.60
2018-12-21T20:32:24.210Z,11.50
2018-12-21T20:34:53.494Z,11.60
2018-12-21T20:37:21.933Z,11.60
2018-12-21T20:39:50.312Z,11.60
2018-12-21T20:42:18.693Z,11.60
2018-12-21T20:44:47.111Z,11.60
2018-12-21T20:47:16.684Z,11.50
2018-12-21T20:49:45.115Z,11.60
2018-12-21T20:52:13.464Z,11.70
2018-12-21T20:54:41.858Z,11.70
2018-12-21T20:57:12.356Z,11.60
2018-12-21T20:59:41.173Z,11.60
2018-12-21T21:02:09.529Z,11.60
2018-12-21T21:04:37.912Z,11.50
2018-12-21T21:07:06.522Z,11.50
2018-12-21T21:09:34.891Z,11.60
2018-12-21T21:12:03.301Z,11.50
2018-12-21T21:14:31.876Z,11.60
2018-12-21T21:17:00.259Z,11.60
2018-12-21T21:19:31.975Z,11.60
2018-12-21T21:22:00.382Z,11.50
2018-12-21T21:24:28.724Z,11.50
2018-12-21T21:26:57.232Z,11.50
2018-12-21T21:29:25.577Z,11.50
2018-12-21T21:31:54.020Z,11.50
2018-12-21T21:34:22.392Z,11.50
2018-12-21T21:36:50.797Z,11.50
2018-12-21T21:39:19.247Z,11.50
2018-12-21T21:41:47.796Z,11.50
2018-12-21T21:44:17.719Z,11.50
2018-12-21T21:46:46.126Z,11.50
2018-12-21T21:49:14.580Z,11.50
2018-12-21T21:51:43.487Z,11.50
2018-12-21T21:54:11.879Z,11.40
2018-12-21T21:56:40.256Z,11.40
2018-12-21T21:59:08.637Z,11.40
2018-12-21T22:01:37.008Z,11.30
2018-12-21T22:04:05.490Z,11.30
2018-12-21T22:06:33.843Z,11.30
2018-12-21T22:09:02.221Z,11.30
2018-12-21T22:11:30.641Z,11.20
2018-12-21T22:13:58.969Z,11.30
2018-12-21T22:16:27.341Z,11.30
2018-12-21T22:18:55.769Z,11.30
2018-12-21T22:21:24.347Z,11.30
2018-12-21T22:23:52.711Z,11.30
2018-12-21T22:26:21.213Z,11.30
2018-12-21T22:28:49.556Z,11.30
2018-12-21T22:31:18.060Z,11.20
2018-12-21T22:33:46.494Z,11.20
2018-12-21T22:36:14.912Z,11.20
2018-12-21T22:38:43.296Z,11.10
2018-12-21T22:41:11.717Z,11.10
2018-12-21T22:43:40.372Z,11.20
2018-12-21T22:46:09.319Z,11.20
2018-12-21T22:48:37.788Z,11.10
2018-12-21T22:51:06.199Z,11.10
2018-12-21T22:53:34.615Z,11.10
2018-12-21T22:56:02.951Z,11.10
2018-12-21T22:58:31.356Z,11.20
2018-12-21T23:00:59.706Z,11.30
2018-12-21T23:03:28.115Z,11.30
2018-12-21T23:05:56.644Z,11.20
2018-12-21T23:08:25.144Z,11.20
2018-12-21T23:10:53.774Z,11.20
2018-12-21T23:13:22.145Z,11.20
2018-12-21T23:15:50.600Z,11.10
2018-12-21T23:18:18.979Z,11.10
2018-12-21T23:20:47.612Z,11.00
2018-12-21T23:23:15.976Z,10.90
2018-12-21T23:25:44.340Z,10.90
2018-12-21T23:28:12.712Z,10.90
2018-12-21T23:30:41.110Z,10.90
2018-12-21T23:33:09.495Z,10.90
2018-12-21T23:35:37.956Z,11.00
2018-12-21T23:38:06.367Z,11.00
2018-12-21T23:40:34.775Z,11.00
2018-12-21T23:43:03.120Z,11.10
2018-12-21T23:45:36.025Z,11.10
2018-12-21T23:48:04.357Z,11.10
2018-12-21T23:50:35.217Z,11.10
2018-12-21T23:53:03.565Z,11.00
2018-12-21T23:55:32.181Z,11.00
2018-12-21T23:58:00.494Z,10.90
